createdAt,value
2019-02-06T00:01:08.544Z,76.10
2019-02-06T00:03:37.047Z,76.50
2019-02-06T00:06:06.283Z,76.30
2019-02-06T00:08:34.785Z,75.80
2019-02-06T00:11:03.488Z,76.10
2019-02-06T00:13:32.196Z,76.20
2019-02-06T00:16:00.962Z,75.90
2019-02-06T00:18:29.511Z,75.70
2019-02-06T00:20:58.087Z,75.30
2019-02-06T00:23:26.523Z,74.70
2019-02-06T00:25:55.113Z,74.30
2019-02-06T00:28:23.539Z,74.10
2019-02-06T00:30:52.362Z,73.40
2019-02-06T00:33:20.816Z,72.90
2019-02-06T00:35:49.246Z,72.60
2019-02-06T00:38:17.695Z,72.60
2019-02-06T00:40:46.203Z,73.30
2019-02-06T00:43:14.788Z,73.30
2019-02-06T00:45:43.590Z,72.80
2019-02-06T00:48:12.113Z,73.80
2019-02-06T00:50:40.550Z,73.20
2019-02-06T00:53:09.085Z,73.20
2019-02-06T00:55:37.518Z,72.90
2019-02-06T00:58:06.027Z,73.10
2019-02-06T01:00:34.630Z,72.80
2019-02-06T01:03:03.231Z,72.40
2019-02-06T01:05:38.468Z,72.30
2019-02-06T01:08:02.059Z,71.60
2019-02-06T01:10:30.508Z,71.50
2019-02-06T01:12:58.963Z,72.20
2019-02-06T01:15:27.565Z,72.20
2019-02-06T01:17:56.486Z,72.70
2019-02-06T01:20:24.995Z,72.30
2019-02-06T01:22:53.534Z,71.50
2019-02-06T01:25:21.974Z,71.00
2019-02-06T01:27:50.421Z,71.30
2019-02-06T01:30:25.081Z,72.00
2019-02-06T01:32:53.628Z,72.50
2019-02-06T01:35:22.090Z,72.30
2019-02-06T01:37:50.586Z,72.50
2019-02-06T01:40:20.683Z,73.50
2019-02-06T01:42:49.188Z,73.60
2019-02-06T01:45:19.630Z,74.40
2019-02-06T01:47:48.140Z,74.20
2019-02-06T01:50:18.775Z,75.10
2019-02-06T01:52:47.457Z,75.10
2019-02-06T01:55:16.417Z,74.50
2019-02-06T01:57:44.918Z,74.50
2019-02-06T02:00:16.314Z,75.40
2019-02-06T02:02:44.738Z,75.20
2019-02-06T02:05:15.498Z,74.30
2019-02-06T02:07:44.166Z,74.50
2019-02-06T02:10:13.144Z,74.90
2019-02-06T02:12:41.678Z,74.60
2019-02-06T02:15:13.435Z,75.30
2019-02-06T02:17:41.930Z,76.10
2019-02-06T02:20:13.956Z,76.40
2019-02-06T02:22:42.622Z,75.90
2019-02-06T02:25:11.287Z,75.90
2019-02-06T02:27:39.805Z,75.20
2019-02-06T02:30:11.332Z,73.80
2019-02-06T02:32:39.770Z,73.00
2019-02-06T02:35:08.715Z,72.50
2019-02-06T02:37:37.320Z,72.30
2019-02-06T02:40:08.752Z,72.30
2019-02-06T02:42:37.336Z,72.50
2019-02-06T02:45:12.552Z,72.70
2019-02-06T02:47:41.028Z,73.40
2019-02-06T02:50:11.014Z,73.40
2019-02-06T02:52:39.575Z,73.90
2019-02-06T02:55:12.629Z,73.40
2019-02-06T02:57:41.449Z,74.30
2019-02-06T03:00:13.943Z,74.50
2019-02-06T03:02:59.436Z,74.50
2019-02-06T03:05:29.575Z,74.40
2019-02-06T03:07:58.029Z,74.50
2019-02-06T03:10:26.447Z,74.20
2019-02-06T03:12:54.932Z,74.10
2019-02-06T03:15:23.711Z,74.30
2019-02-06T03:17:52.271Z,74.70
2019-02-06T03:20:20.727Z,74.80
2019-02-06T03:22:49.251Z,74.30
2019-02-06T03:25:17.676Z,74.50
2019-02-06T03:27:46.219Z,73.70
2019-02-06T03:30:18.801Z,74.10
2019-02-06T03:32:49.106Z,74.30
2019-02-06T03:35:17.956Z,74.30
2019-02-06T03:37:46.426Z,74.40
2019-02-06T03:40:17.121Z,74.80
2019-02-06T03:42:45.761Z,75.30
2019-02-06T03:45:14.823Z,75.60
2019-02-06T03:47:43.328Z,75.50
2019-02-06T03:50:17.347Z,75.60
2019-02-06T03:52:45.777Z,74.80
2019-02-06T03:55:14.592Z,74.60
2019-02-06T03:57:43.354Z,74.90
2019-02-06T04:00:19.953Z,74.00
2019-02-06T04:02:48.506Z,74.60
2019-02-06T04:05:17.005Z,75.20
2019-02-06T04:07:45.507Z,75.50
2019-02-06T04:10:18.895Z,75.40
2019-02-06T04:12:47.420Z,75.90
2019-02-06T04:15:16.584Z,76.50
2019-02-06T04:17:45.325Z,76.20
2019-02-06T04:20:15.128Z,75.60
2019-02-06T04:22:43.862Z,75.30
2019-02-06T04:25:14.861Z,74.80
2019-02-06T04:27:43.495Z,74.00
2019-02-06T04:30:14.866Z,74.00
2019-02-06T04:32:43.551Z,74.70
2019-02-06T04:35:13.838Z,75.40
2019-02-06T04:37:42.736Z,75.40
2019-02-06T04:40:18.798Z,74.10
2019-02-06T04:42:47.782Z,73.40
2019-02-06T04:45:19.877Z,72.10
2019-02-06T04:47:48.427Z,71.90
2019-02-06T04:50:17.888Z,72.10
2019-02-06T04:52:46.581Z,72.00
2019-02-06T04:55:17.036Z,71.60
2019-02-06T04:57:46.265Z,71.30
2019-02-06T05:00:26.299Z,71.20
2019-02-06T05:02:54.887Z,71.60
2019-02-06T05:05:23.602Z,71.30
2019-02-06T05:07:52.172Z,71.00
2019-02-06T05:10:20.600Z,72.00
2019-02-06T05:12:49.384Z,72.10
2019-02-06T05:15:18.894Z,72.00
2019-02-06T05:17:47.330Z,73.00
2019-02-06T05:20:31.118Z,73.30
2019-02-06T05:22:59.632Z,73.60
2019-02-06T05:25:28.430Z,72.70
2019-02-06T05:27:56.946Z,72.00
2019-02-06T05:30:25.450Z,72.10
2019-02-06T05:32:53.921Z,72.20
2019-02-06T05:35:22.419Z,72.60
2019-02-06T05:37:51.014Z,72.40
2019-02-06T05:40:19.518Z,72.10
2019-02-06T05:42:48.055Z,71.90
2019-02-06T05:45:17.630Z,71.80
2019-02-06T05:47:46.079Z,72.10
2019-02-06T05:50:16.844Z,72.60
2019-02-06T05:52:46.234Z,72.70
2019-02-06T05:55:16.523Z,72.50
2019-02-06T05:57:45.583Z,73.20
2019-02-06T06:00:21.059Z,73.40
2019-02-06T06:02:49.507Z,73.10
2019-02-06T06:05:18.007Z,73.30
2019-02-06T06:07:46.475Z,73.10
2019-02-06T06:10:17.240Z,73.00
2019-02-06T06:12:46.299Z,72.90
2019-02-06T06:15:17.670Z,72.90
2019-02-06T06:17:46.132Z,72.70
2019-02-06T06:20:17.263Z,72.30
2019-02-06T06:22:45.883Z,72.30
2019-02-06T06:25:16.440Z,71.10
2019-02-06T06:27:45.340Z,71.80
2019-02-06T06:30:18.978Z,71.40
2019-02-06T06:32:47.779Z,70.00
2019-02-06T06:35:16.335Z,70.20
2019-02-06T06:37:57.099Z,70.30
2019-02-06T06:40:22.755Z,69.60
2019-02-06T06:42:51.386Z,69.40
2019-02-06T06:45:22.279Z,69.60
2019-02-06T06:47:50.870Z,69.50
2019-02-06T06:50:21.482Z,69.90
2019-02-06T06:52:49.911Z,70.60
2019-02-06T06:55:18.433Z,70.40
2019-02-06T06:57:47.002Z,70.40
2019-02-06T07:00:23.726Z,70.30
2019-02-06T07:02:52.146Z,70.50
2019-02-06T07:05:21.434Z,70.20
2019-02-06T07:07:51.015Z,69.80
2019-02-06T07:10:20.386Z,70.00
2019-02-06T07:12:48.827Z,69.80
2019-02-06T07:15:23.014Z,69.60
2019-02-06T07:17:51.572Z,69.20
2019-02-06T07:20:20.838Z,69.50
2019-02-06T07:22:49.479Z,70.10
2019-02-06T07:25:19.691Z,69.60
2019-02-06T07:27:48.177Z,70.50
2019-02-06T07:30:28.533Z,69.90
2019-02-06T07:32:57.383Z,69.60
2019-02-06T07:35:25.831Z,71.60
2019-02-06T07:37:54.264Z,71.00
2019-02-06T07:40:22.884Z,71.90
2019-02-06T07:42:51.575Z,71.50
2019-02-06T07:45:20.558Z,70.60
2019-02-06T07:47:49.314Z,69.80
2019-02-06T07:50:20.568Z,69.20
2019-02-06T07:52:49.014Z,68.50
2019-02-06T07:55:17.878Z,68.70
2019-02-06T07:57:46.381Z,68.40
2019-02-06T08:00:15.201Z,67.90
2019-02-06T08:02:43.791Z,68.10
2019-02-06T08:05:22.333Z,68.50
2019-02-06T08:07:51.454Z,68.60
2019-02-06T08:10:22.587Z,67.80
2019-02-06T08:12:52.596Z,67.70
2019-02-06T08:15:21.376Z,66.30
2019-02-06T08:17:49.892Z,66.60
2019-02-06T08:20:23.727Z,66.30
2019-02-06T08:22:52.881Z,66.00
2019-02-06T08:25:23.148Z,65.60
2019-02-06T08:27:51.666Z,66.00
2019-02-06T08:30:25.590Z,65.60
2019-02-06T08:32:54.471Z,65.70
2019-02-06T08:35:23.069Z,65.00
2019-02-06T08:37:51.909Z,63.80
2019-02-06T08:40:23.731Z,66.10
2019-02-06T08:42:52.195Z,66.10
2019-02-06T08:45:20.963Z,66.10
2019-02-06T08:47:49.583Z,65.40
2019-02-06T08:50:20.507Z,64.60
2019-02-06T08:52:49.786Z,63.60
2019-02-06T08:55:20.915Z,64.00
2019-02-06T08:57:49.538Z,64.30
2019-02-06T09:00:26.868Z,63.50
2019-02-06T09:02:55.533Z,62.70
2019-02-06T09:05:24.014Z,62.70
2019-02-06T09:07:52.444Z,62.80
2019-02-06T09:10:23.231Z,63.00
2019-02-06T09:12:52.500Z,62.80
2019-02-06T09:15:21.098Z,63.60
2019-02-06T09:17:49.626Z,62.90
2019-02-06T09:20:20.827Z,63.20
2019-02-06T09:22:49.331Z,62.40
2019-02-06T09:25:20.192Z,61.40
2019-02-06T09:27:48.708Z,60.60
2019-02-06T09:30:22.522Z,60.50
2019-02-06T09:32:50.950Z,60.40
2019-02-06T09:35:19.557Z,60.60
2019-02-06T09:37:47.987Z,59.50
2019-02-06T09:40:21.829Z,57.60
2019-02-06T09:42:50.265Z,56.20
2019-02-06T09:45:19.059Z,55.10
2019-02-06T09:47:47.511Z,58.10
2019-02-06T09:50:21.972Z,53.70
2019-02-06T09:52:50.556Z,57.50
2019-02-06T09:55:20.626Z,56.00
2019-02-06T09:57:49.254Z,56.60
2019-02-06T10:00:26.441Z,57.60
2019-02-06T10:02:54.869Z,57.70
2019-02-06T10:05:23.692Z,57.50
2019-02-06T10:07:52.145Z,56.00
2019-02-06T10:10:22.814Z,53.20
2019-02-06T10:12:51.490Z,54.50
2019-02-06T10:15:33.456Z,53.20
2019-02-06T10:18:02.428Z,54.30
2019-02-06T10:20:39.603Z,51.80
2019-02-06T10:23:08.594Z,52.80
2019-02-06T10:25:37.976Z,53.40
2019-02-06T10:28:06.662Z,53.80
2019-02-06T10:30:37.630Z,54.40
2019-02-06T10:33:06.740Z,54.10
2019-02-06T10:35:35.515Z,53.20
2019-02-06T10:38:04.797Z,51.80
2019-02-06T10:40:34.772Z,51.80
2019-02-06T10:43:03.363Z,51.80
2019-02-06T10:45:31.926Z,50.90
2019-02-06T10:48:00.370Z,49.70
2019-02-06T10:50:40.455Z,50.00
2019-02-06T10:53:09.740Z,50.30
2019-02-06T10:55:38.310Z,50.70
2019-02-06T10:58:07.511Z,50.80
2019-02-06T11:00:46.043Z,50.20
2019-02-06T11:03:14.662Z,51.40
2019-02-06T11:05:43.270Z,50.90
2019-02-06T11:08:11.978Z,49.70
2019-02-06T11:10:40.419Z,49.70
2019-02-06T11:13:09.082Z,50.00
2019-02-06T11:15:37.866Z,49.40
2019-02-06T11:18:06.433Z,51.10
2019-02-06T11:20:37.319Z,49.10
2019-02-06T11:23:06.576Z,50.10
2019-02-06T11:25:36.077Z,50.10
2019-02-06T11:28:05.542Z,48.60
2019-02-06T11:30:39.096Z,50.20
2019-02-06T11:33:07.964Z,48.70
2019-02-06T11:35:36.580Z,49.60
2019-02-06T11:38:06.511Z,50.00
2019-02-06T11:40:35.283Z,50.20
2019-02-06T11:43:04.513Z,50.40
2019-02-06T11:45:34.366Z,50.20
2019-02-06T11:48:02.811Z,50.80
2019-02-06T11:50:35.462Z,51.00
2019-02-06T11:53:04.457Z,51.50
2019-02-06T11:55:33.532Z,50.20
2019-02-06T11:58:02.027Z,51.60
2019-02-06T12:00:44.370Z,50.90
2019-02-06T12:03:13.154Z,49.90
2019-02-06T12:05:41.725Z,50.80
2019-02-06T12:08:12.509Z,50.30
2019-02-06T12:10:40.676Z,49.90
2019-02-06T12:13:09.617Z,51.30
2019-02-06T12:15:38.224Z,50.70
2019-02-06T12:18:07.293Z,50.80
2019-02-06T12:20:36.259Z,51.20
2019-02-06T12:23:05.270Z,50.60
2019-02-06T12:25:34.676Z,51.90
2019-02-06T12:28:05.179Z,51.70
2019-02-06T12:30:39.003Z,51.00
2019-02-06T12:33:07.629Z,51.40
2019-02-06T12:35:36.106Z,50.70
2019-02-06T12:38:05.286Z,51.50
2019-02-06T12:40:33.856Z,50.80
2019-02-06T12:43:02.363Z,51.20
2019-02-06T12:45:31.183Z,51.40
2019-02-06T12:47:59.698Z,49.90
2019-02-06T12:50:28.367Z,51.00
2019-02-06T12:52:57.679Z,50.40
2019-02-06T12:55:35.231Z,51.10
2019-02-06T12:58:04.540Z,50.30
2019-02-06T13:00:35.783Z,51.00
2019-02-06T13:03:04.572Z,51.40
2019-02-06T13:05:33.243Z,50.70
2019-02-06T13:08:01.863Z,50.70
2019-02-06T13:10:34.524Z,50.90
2019-02-06T13:13:00.727Z,51.30
2019-02-06T13:15:29.312Z,50.10
2019-02-06T13:17:57.938Z,50.70
2019-02-06T13:20:34.612Z,51.40
2019-02-06T13:23:03.311Z,50.80
2019-02-06T13:25:31.831Z,49.80
2019-02-06T13:28:00.690Z,50.40
2019-02-06T13:30:35.840Z,50.00
2019-02-06T13:33:06.101Z,51.30
2019-02-06T13:35:34.621Z,50.50
2019-02-06T13:38:03.126Z,50.10
2019-02-06T13:40:31.572Z,49.80
2019-02-06T13:43:00.255Z,50.20
2019-02-06T13:45:34.645Z,50.70
2019-02-06T13:48:03.217Z,50.30
2019-02-06T13:50:31.898Z,49.90
2019-02-06T13:53:00.480Z,50.40
2019-02-06T13:55:29.272Z,49.70
2019-02-06T13:57:57.863Z,49.90
2019-02-06T14:00:32.397Z,50.40
2019-02-06T14:03:00.966Z,49.40
2019-02-06T14:05:30.935Z,49.50
2019-02-06T14:08:01.815Z,49.60
2019-02-06T14:10:31.906Z,49.50
2019-02-06T14:13:01.188Z,49.50
2019-02-06T14:15:35.986Z,49.80
2019-02-06T14:18:04.799Z,50.20
2019-02-06T14:20:33.463Z,49.70
2019-02-06T14:23:11.415Z,49.60
2019-02-06T14:25:46.623Z,49.60
2019-02-06T14:28:32.464Z,50.00
2019-02-06T14:31:06.659Z,50.00
2019-02-06T14:34:02.140Z,50.60
2019-02-06T14:36:36.231Z,50.40
2019-02-06T14:39:13.346Z,50.60
2019-02-06T14:41:48.168Z,50.40
2019-02-06T14:44:34.527Z,50.80
2019-02-06T14:47:11.840Z,50.70
2019-02-06T14:49:49.041Z,50.00
2019-02-06T14:52:23.470Z,50.70
2019-02-06T14:54:57.915Z,51.40
2019-02-06T14:57:35.318Z,51.10
2019-02-06T15:00:19.105Z,51.80
2019-02-06T15:03:05.899Z,52.00
2019-02-06T15:05:43.021Z,52.20
2019-02-06T15:08:17.249Z,51.30
2019-02-06T15:10:48.761Z,51.40
2019-02-06T15:13:23.234Z,52.40
2019-02-06T15:16:00.737Z,52.70
2019-02-06T15:18:44.360Z,53.30
2019-02-06T15:21:27.919Z,53.70
2019-02-06T15:24:17.247Z,53.70
2019-02-06T15:27:21.801Z,53.40
2019-02-06T15:30:02.367Z,53.80
2019-02-06T15:32:39.571Z,54.10
2019-02-06T15:35:42.770Z,54.00
2019-02-06T15:38:14.361Z,54.70
2019-02-06T15:40:54.836Z,54.70
2019-02-06T15:43:28.847Z,55.30
2019-02-06T15:46:33.886Z,55.50
2019-02-06T15:49:20.233Z,56.00
2019-02-06T15:51:54.438Z,56.70
2019-02-06T15:54:50.094Z,57.50
2019-02-06T15:57:42.480Z,58.60
2019-02-06T16:00:14.204Z,57.90
2019-02-06T16:02:48.838Z,57.90
2019-02-06T16:05:36.802Z,57.80
2019-02-06T16:08:29.227Z,59.10
2019-02-06T16:11:06.356Z,58.60
2019-02-06T16:14:06.467Z,59.90
2019-02-06T16:16:49.642Z,60.10
2019-02-06T16:19:40.867Z,60.30
2019-02-06T16:22:24.333Z,60.10
2019-02-06T16:24:58.818Z,60.50
2019-02-06T16:27:32.984Z,60.80
2019-02-06T16:30:13.412Z,61.00
2019-02-06T16:33:00.072Z,61.40
2019-02-06T16:36:00.236Z,61.40
2019-02-06T16:38:43.267Z,61.40
2019-02-06T16:41:36.053Z,61.60
2019-02-06T16:44:07.634Z,62.00
2019-02-06T16:47:03.271Z,62.30
2019-02-06T16:49:49.338Z,62.30
2019-02-06T16:52:27.068Z,62.40
2019-02-06T16:55:21.474Z,62.20
2019-02-06T16:57:59.028Z,62.40
2019-02-06T17:00:45.812Z,62.80
2019-02-06T17:03:26.359Z,63.20
2019-02-06T17:06:03.623Z,63.50
2019-02-06T17:08:40.983Z,63.30
2019-02-06T17:11:15.445Z,62.90
2019-02-06T17:14:06.585Z,63.70
2019-02-06T17:16:59.407Z,64.00
2019-02-06T17:19:36.591Z,64.00
2019-02-06T17:22:30.903Z,64.40
2019-02-06T17:25:08.151Z,64.60
2019-02-06T17:27:57.826Z,65.30
2019-02-06T17:30:47.325Z,65.20
2019-02-06T17:33:53.640Z,65.40
2019-02-06T17:36:40.303Z,65.30
2019-02-06T17:39:43.720Z,65.10
2019-02-06T17:42:30.217Z,65.50
2019-02-06T17:45:13.931Z,65.50
2019-02-06T17:47:54.386Z,66.30
2019-02-06T17:50:47.026Z,66.30
2019-02-06T17:53:35.116Z,66.60
2019-02-06T17:56:03.721Z,66.40
2019-02-06T17:58:34.811Z,66.00
2019-02-06T18:01:12.178Z,67.10
2019-02-06T18:03:43.264Z,67.60
2019-02-06T18:06:12.634Z,67.90
2019-02-06T18:08:41.108Z,68.50
2019-02-06T18:11:10.284Z,69.30
2019-02-06T18:13:38.765Z,69.30
2019-02-06T18:16:07.730Z,68.50
2019-02-06T18:18:36.187Z,69.60
2019-02-06T18:21:05.139Z,70.90
2019-02-06T18:23:33.837Z,71.30
2019-02-06T18:26:02.848Z,71.40
2019-02-06T18:28:31.368Z,70.50
2019-02-06T18:30:59.928Z,70.40
2019-02-06T18:33:30.075Z,70.60
2019-02-06T18:35:58.643Z,71.10
2019-02-06T18:38:27.161Z,71.60
2019-02-06T18:40:55.796Z,71.10
2019-02-06T18:43:25.552Z,71.60
2019-02-06T18:45:54.048Z,71.60
2019-02-06T18:48:24.502Z,71.30
2019-02-06T18:50:54.057Z,71.10
2019-02-06T18:53:22.619Z,70.00
2019-02-06T18:55:51.424Z,70.40
2019-02-06T18:58:20.120Z,70.80
2019-02-06T19:00:48.701Z,70.60
2019-02-06T19:03:23.469Z,69.70
2019-02-06T19:05:51.967Z,69.80
2019-02-06T19:08:20.443Z,69.70
2019-02-06T19:10:49.615Z,70.60
2019-02-06T19:13:18.247Z,70.90
2019-02-06T19:15:56.172Z,70.90
2019-02-06T19:18:17.743Z,71.10
2019-02-06T19:20:46.434Z,71.70
2019-02-06T19:23:14.846Z,72.00
2019-02-06T19:25:44.344Z,71.00
2019-02-06T19:28:13.158Z,72.70
2019-02-06T19:30:43.672Z,73.90
2019-02-06T19:33:12.199Z,74.20
2019-02-06T19:35:40.665Z,75.00
2019-02-06T19:38:09.182Z,75.70
2019-02-06T19:40:38.196Z,75.60
2019-02-06T19:43:06.800Z,75.30
2019-02-06T19:45:35.777Z,75.70
2019-02-06T19:48:15.207Z,76.30
2019-02-06T19:50:38.371Z,76.90
2019-02-06T19:53:08.422Z,76.70
2019-02-06T19:55:37.055Z,76.20
2019-02-06T19:58:07.793Z,75.90
2019-02-06T20:00:37.935Z,75.50
2019-02-06T20:03:08.372Z,74.60
2019-02-06T20:05:37.259Z,75.50
2019-02-06T20:08:07.573Z,75.50
2019-02-06T20:10:42.002Z,75.50
2019-02-06T20:13:14.362Z,74.30
2019-02-06T20:15:40.812Z,74.70
2019-02-06T20:18:09.725Z,74.40
2019-02-06T20:20:38.150Z,74.00
2019-02-06T20:23:06.838Z,73.70
2019-02-06T20:25:35.323Z,72.80
2019-02-06T20:28:04.244Z,73.00
2019-02-06T20:30:33.479Z,72.90
2019-02-06T20:33:02.105Z,73.20
2019-02-06T20:35:30.636Z,73.50
2019-02-06T20:37:59.653Z,73.50
2019-02-06T20:40:32.879Z,72.50
2019-02-06T20:43:01.483Z,73.10
2019-02-06T20:45:31.411Z,73.20
2019-02-06T20:48:00.182Z,73.70
2019-02-06T20:50:36.010Z,74.00
2019-02-06T20:53:05.469Z,74.20
2019-02-06T20:55:34.106Z,73.20
2019-02-06T20:58:02.883Z,73.10
2019-02-06T21:00:34.556Z,72.90
2019-02-06T21:03:03.088Z,72.60
2019-02-06T21:05:31.532Z,72.50
2019-02-06T21:08:00.531Z,71.50
2019-02-06T21:10:36.481Z,72.10
2019-02-06T21:13:05.950Z,72.70
2019-02-06T21:15:34.782Z,72.50
2019-02-06T21:18:03.425Z,72.40
2019-02-06T21:20:32.042Z,71.40
2019-02-06T21:23:01.764Z,70.60
2019-02-06T21:25:30.291Z,71.80
2019-02-06T21:27:58.792Z,72.30
2019-02-06T21:30:32.651Z,71.80
2019-02-06T21:33:01.227Z,71.70
2019-02-06T21:35:29.686Z,71.70
2019-02-06T21:37:58.602Z,71.40
2019-02-06T21:40:29.387Z,71.30
2019-02-06T21:42:57.813Z,71.20
2019-02-06T21:45:26.398Z,71.70
2019-02-06T21:47:54.886Z,71.80
2019-02-06T21:50:24.495Z,73.00
2019-02-06T21:52:53.566Z,72.80
2019-02-06T21:55:23.440Z,72.80
2019-02-06T21:57:52.087Z,72.30
2019-02-06T22:00:26.411Z,72.00
2019-02-06T22:02:55.082Z,71.60
2019-02-06T22:05:23.595Z,71.50
2019-02-06T22:07:52.504Z,72.00
2019-02-06T22:10:24.182Z,70.60
2019-02-06T22:12:52.777Z,72.10
2019-02-06T22:15:29.310Z,71.80
2019-02-06T22:17:57.937Z,71.90
2019-02-06T22:20:26.822Z,71.10
2019-02-06T22:22:55.488Z,71.70
2019-02-06T22:25:24.147Z,72.40
2019-02-06T22:27:52.708Z,72.60
2019-02-06T22:30:30.087Z,72.60
2019-02-06T22:32:58.780Z,72.60
2019-02-06T22:35:27.714Z,71.80
2019-02-06T22:37:56.239Z,71.40
2019-02-06T22:40:26.547Z,71.90
2019-02-06T22:42:55.083Z,72.50
2019-02-06T22:45:28.206Z,72.70
2019-02-06T22:47:56.806Z,73.20
2019-02-06T22:50:27.771Z,73.20
2019-02-06T22:52:56.487Z,73.50
2019-02-06T22:55:25.181Z,73.90
2019-02-06T22:57:53.861Z,73.90
2019-02-06T23:00:29.854Z,73.60
2019-02-06T23:02:58.736Z,73.80
2019-02-06T23:05:27.176Z,73.80
2019-02-06T23:07:55.672Z,73.60
2019-02-06T23:10:24.208Z,73.60
2019-02-06T23:12:52.650Z,74.50
2019-02-06T23:15:21.158Z,74.20
2019-02-06T23:17:49.586Z,74.90
2019-02-06T23:20:18.184Z,76.10
2019-02-06T23:22:46.627Z,75.90
2019-02-06T23:25:15.074Z,76.30
2019-02-06T23:27:43.516Z,76.20
2019-02-06T23:30:14.672Z,76.70
2019-02-06T23:32:43.479Z,76.00
2019-02-06T23:35:12.162Z,75.30
2019-02-06T23:37:40.600Z,76.30
2019-02-06T23:40:12.051Z,76.80
2019-02-06T23:42:40.476Z,76.40
2019-02-06T23:45:10.469Z,75.40
2019-02-06T23:47:39.387Z,75.60
2019-02-06T23:50:16.010Z,74.60
2019-02-06T23:52:44.434Z,75.00
2019-02-06T23:55:13.130Z,75.40
2019-02-06T23:57:41.603Z,75.90
